Terminal Aerodrome Forecast
Issued by NWS

Home | Current Version | Previous Version | Text Only | Print | Product List | Glossary On
Versions: 1 2 3 4 5 6 7 8 9 10 11 12 13 14 15 16 17 18
000
FTUS43 KDVN 211100 AAA
TAFBRL
TAF AMD
KBRL 211100Z 2111/2206 18005KT 5SM BR SCT100
      TEMPO 2111/2113 2SM BR
     FM211400 20010KT P6SM SCT250=

USA.gov is the U.S. government's official web portal to all federal, state and local government web resources and services.